PWSweather.com
Personal Weather Stations
Station Observations
KMNGREYC2
Grey Cloud Island, Grey Cloud Island, MN 55071

Grey Cloud IslandGrey Cloud Island, MN 55071

Lat: 44.799333, Lon: -92.987851

Elevation: 700

Station Type: Davis VP2

www.jagielski.com/weather/conditions.htm

High Low Average
Temperature 33.9°F1.1°C 14.1°F-9.9°C 22.8°F-5.1°C
Dew Point 33.3°F0.7°C 9.4°F-12.6°C 19.3°F-7.1°C
Winds 10.0 mph 16.1 kmh Calm Calm 3.0 mph WSW4.8 kmh WSW
Wind Gusts 18.0 mph29.0 kmh 5.0 mph8.0 kmh 12.0 mph19.3 kmh
Humidity 98% 80% 86%
Pressure 30.28 in1025.4 mb 29.44 in997.0 mb -
Precipitation 0.00 in0.0 mm - -
Hour Temp Dew Point Humidity Winds Wind Gusts Pressure Precip Precip Rate Daily Precip Total
12:00 AM 33.9°F1.1°C 33.1°F0.6°C 97% 2.0 mph NW3.2 kmh NW 7.0 mph11.3 kmh 29.44 in997.0 mb 0.01 in0.3 mm 0.00 in0.0 mm 0.01 in0.3 mm
12:15 AM 33.8°F1.0°C 33.0°F0.6°C 97% 2.0 mph NW3.2 kmh NW 12.0 mph19.3 kmh 29.45 in997.3 mb 0.00 in0.0 mm 0.00 in0.0 mm 0.01 in0.3 mm
12:30 AM 33.8°F1.0°C 33.3°F0.7°C 98% 4.0 mph WNW6.4 kmh WNW 12.0 mph19.3 kmh 29.45 in997.3 mb 0.00 in0.0 mm 0.00 in0.0 mm 0.01 in0.3 mm
12:45 AM 33.7°F0.9°C 33.2°F0.7°C 98% Calm Calm 13.0 mph20.9 kmh 29.46 in997.6 mb 0.00 in0.0 mm 0.00 in0.0 mm 0.01 in0.3 mm
01:00 AM 33.7°F0.9°C 33.2°F0.7°C 98% 4.0 mph N6.4 kmh N 13.0 mph20.9 kmh 29.48 in998.3 mb 0.00 in0.0 mm 0.00 in0.0 mm 0.01 in0.3 mm
01:15 AM 33.6°F0.9°C 33.1°F0.6°C 98% Calm Calm 9.0 mph14.5 kmh 29.48 in998.3 mb 0.00 in0.0 mm 0.00 in0.0 mm 0.01 in0.3 mm
01:30 AM 33.5°F0.8°C 33.0°F0.6°C 98% 2.0 mph NW3.2 kmh NW 9.0 mph14.5 kmh 29.50 in999.0 mb 0.00 in0.0 mm 0.00 in0.0 mm 0.01 in0.3 mm
01:45 AM 33.4°F0.8°C 32.6°F0.3°C 97% 5.0 mph NW8.0 kmh NW 13.0 mph20.9 kmh 29.50 in999.0 mb 0.00 in0.0 mm 0.00 in0.0 mm 0.01 in0.3 mm
02:00 AM 33.2°F0.7°C 32.4°F0.2°C 97% 4.0 mph WNW6.4 kmh WNW 14.0 mph22.5 kmh 29.51 in999.3 mb 0.00 in0.0 mm 0.00 in0.0 mm 0.01 in0.3 mm
02:15 AM 32.8°F0.4°C 32.0°F0.0°C 97% 3.0 mph W4.8 kmh W 11.0 mph17.7 kmh 29.53 in1000.0 mb 0.00 in0.0 mm 0.00 in0.0 mm 0.01 in0.3 mm
02:30 AM 32.4°F0.2°C 31.7°F-0.2°C 97% 7.0 mph N11.3 kmh N 12.0 mph19.3 kmh 29.54 in1000.3 mb 0.00 in0.0 mm 0.00 in0.0 mm 0.01 in0.3 mm
02:45 AM 31.8°F-0.1°C 31.1°F-0.5°C 97% 4.0 mph NW6.4 kmh NW 12.0 mph19.3 kmh 29.55 in1000.7 mb 0.00 in0.0 mm 0.00 in0.0 mm 0.01 in0.3 mm
03:00 AM 31.2°F-0.4°C 30.5°F-0.8°C 97% 2.0 mph NW3.2 kmh NW 12.0 mph19.3 kmh 29.56 in1001.0 mb 0.00 in0.0 mm 0.00 in0.0 mm 0.01 in0.3 mm
03:15 AM 30.8°F-0.7°C 30.1°F-1.1°C 97% 5.0 mph WNW8.0 kmh WNW 11.0 mph17.7 kmh 29.57 in1001.4 mb 0.00 in0.0 mm 0.00 in0.0 mm 0.01 in0.3 mm
03:30 AM 29.7°F-1.3°C 29.0°F-1.7°C 97% 4.0 mph W6.4 kmh W 15.0 mph24.1 kmh 29.58 in1001.7 mb 0.00 in0.0 mm 0.00 in0.0 mm 0.01 in0.3 mm
03:45 AM 29.2°F-1.6°C 28.5°F-1.9°C 97% 4.0 mph NW6.4 kmh NW 14.0 mph22.5 kmh 29.59 in1002.0 mb 0.00 in0.0 mm 0.00 in0.0 mm 0.01 in0.3 mm
04:00 AM 28.7°F-1.8°C 28.0°F-2.2°C 97% 2.0 mph WNW3.2 kmh WNW 18.0 mph29.0 kmh 29.60 in1002.4 mb 0.00 in0.0 mm 0.00 in0.0 mm 0.01 in0.3 mm
04:15 AM 28.7°F-1.8°C 27.7°F-2.4°C 96% 3.0 mph NNW4.8 kmh NNW 11.0 mph17.7 kmh 29.61 in1002.7 mb 0.00 in0.0 mm 0.00 in0.0 mm 0.01 in0.3 mm
04:30 AM 28.1°F-2.2°C 27.1°F-2.7°C 96% 3.0 mph NW4.8 kmh NW 17.0 mph27.4 kmh 29.62 in1003.0 mb 0.00 in0.0 mm 0.00 in0.0 mm 0.01 in0.3 mm
04:45 AM 27.8°F-2.3°C 26.6°F-3.0°C 95% 4.0 mph NW6.4 kmh NW 14.0 mph22.5 kmh 29.63 in1003.4 mb 0.00 in0.0 mm 0.00 in0.0 mm 0.01 in0.3 mm
05:00 AM 27.7°F-2.4°C 26.2°F-3.2°C 94% 5.0 mph NE8.0 kmh NE 14.0 mph22.5 kmh 29.64 in1003.7 mb 0.01 in0.3 mm 0.01 in0.3 mm 0.02 in0.5 mm
05:15 AM 27.6°F-2.4°C 25.8°F-3.4°C 93% 6.0 mph WNW9.7 kmh WNW 13.0 mph20.9 kmh 29.65 in1004.1 mb 0.01 in0.3 mm 0.00 in0.0 mm 0.02 in0.5 mm
05:30 AM 27.4°F-2.6°C 25.4°F-3.7°C 92% 5.0 mph NNE8.0 kmh NNE 13.0 mph20.9 kmh 29.66 in1004.4 mb 0.01 in0.3 mm 0.00 in0.0 mm 0.02 in0.5 mm
05:45 AM 27.2°F-2.7°C 24.9°F-3.9°C 91% 5.0 mph NNE8.0 kmh NNE 14.0 mph22.5 kmh 29.67 in1004.7 mb 0.01 in0.3 mm 0.00 in0.0 mm 0.02 in0.5 mm
06:00 AM 27.0°F-2.8°C 24.5°F-4.2°C 90% 2.0 mph N3.2 kmh N 14.0 mph22.5 kmh 29.67 in1004.7 mb 0.01 in0.3 mm 0.00 in0.0 mm 0.02 in0.5 mm
06:15 AM 26.7°F-2.9°C 24.2°F-4.3°C 90% 3.0 mph WNW4.8 kmh WNW 17.0 mph27.4 kmh 29.69 in1005.4 mb 0.00 in0.0 mm 0.00 in0.0 mm 0.02 in0.5 mm
06:30 AM 26.5°F-3.1°C 23.7°F-4.6°C 89% 6.0 mph N9.7 kmh N 17.0 mph27.4 kmh 29.70 in1005.8 mb 0.00 in0.0 mm 0.00 in0.0 mm 0.02 in0.5 mm
06:45 AM 26.3°F-3.2°C 23.5°F-4.7°C 89% 3.0 mph NNW4.8 kmh NNW 12.0 mph19.3 kmh 29.72 in1006.4 mb 0.00 in0.0 mm 0.00 in0.0 mm 0.02 in0.5 mm
07:00 AM 26.0°F-3.3°C 23.2°F-4.9°C 89% 2.0 mph N3.2 kmh N 12.0 mph19.3 kmh 29.73 in1006.8 mb 0.00 in0.0 mm 0.00 in0.0 mm 0.02 in0.5 mm
07:15 AM 25.7°F-3.5°C 22.7°F-5.2°C 88% 5.0 mph NW8.0 kmh NW 11.0 mph17.7 kmh 29.75 in1007.5 mb 0.00 in0.0 mm 0.00 in0.0 mm 0.02 in0.5 mm
07:30 AM 25.6°F-3.6°C 22.6°F-5.2°C 88% 1.0 mph N1.6 kmh N 11.0 mph17.7 kmh 29.76 in1007.8 mb 0.00 in0.0 mm 0.00 in0.0 mm 0.02 in0.5 mm
07:45 AM 25.2°F-3.8°C 21.6°F-5.8°C 86% 3.0 mph NW4.8 kmh NW 12.0 mph19.3 kmh 29.78 in1008.5 mb 0.00 in0.0 mm 0.00 in0.0 mm 0.02 in0.5 mm
08:00 AM 25.0°F-3.9°C 21.7°F-5.7°C 87% 3.0 mph N4.8 kmh N 13.0 mph20.9 kmh 29.80 in1009.1 mb 0.00 in0.0 mm 0.00 in0.0 mm 0.02 in0.5 mm
08:15 AM 24.8°F-4.0°C 21.5°F-5.8°C 87% 4.0 mph NW6.4 kmh NW 10.0 mph16.1 kmh 29.82 in1009.8 mb 0.00 in0.0 mm 0.00 in0.0 mm 0.02 in0.5 mm
08:30 AM 24.5°F-4.2°C 20.9°F-6.2°C 86% 4.0 mph WNW6.4 kmh WNW 17.0 mph27.4 kmh 29.84 in1010.5 mb 0.00 in0.0 mm 0.00 in0.0 mm 0.02 in0.5 mm
08:45 AM 23.9°F-4.5°C 20.1°F-6.6°C 85% 4.0 mph NNW6.4 kmh NNW 12.0 mph19.3 kmh 29.86 in1011.2 mb 0.00 in0.0 mm 0.00 in0.0 mm 0.02 in0.5 mm
09:00 AM 23.4°F-4.8°C 19.6°F-6.9°C 85% 3.0 mph NW4.8 kmh NW 12.0 mph19.3 kmh 29.87 in1011.5 mb 0.00 in0.0 mm 0.00 in0.0 mm 0.02 in0.5 mm
09:15 AM 23.1°F-4.9°C 19.3°F-7.1°C 85% 2.0 mph N3.2 kmh N 15.0 mph24.1 kmh 29.88 in1011.9 mb 0.00 in0.0 mm 0.00 in0.0 mm 0.02 in0.5 mm
09:30 AM 22.7°F-5.2°C 18.6°F-7.4°C 84% 1.0 mph WNW1.6 kmh WNW 17.0 mph27.4 kmh 29.89 in1012.2 mb 0.00 in0.0 mm 0.00 in0.0 mm 0.02 in0.5 mm
09:45 AM 22.5°F-5.3°C 18.4°F-7.6°C 84% 2.0 mph NE3.2 kmh NE 9.0 mph14.5 kmh 29.89 in1012.2 mb 0.00 in0.0 mm 0.00 in0.0 mm 0.02 in0.5 mm
10:00 AM 22.2°F-5.4°C 17.8°F-7.9°C 83% 3.0 mph NNW4.8 kmh NNW 13.0 mph20.9 kmh 29.91 in1012.9 mb 0.00 in0.0 mm 0.00 in0.0 mm 0.02 in0.5 mm
10:15 AM 21.4°F-5.9°C 16.8°F-8.4°C 82% 4.0 mph NW6.4 kmh NW 14.0 mph22.5 kmh 29.91 in1012.9 mb 0.00 in0.0 mm 0.00 in0.0 mm 0.02 in0.5 mm
10:30 AM 21.5°F-5.8°C 17.4°F-8.1°C 84% 5.0 mph NNW8.0 kmh NNW 15.0 mph24.1 kmh 29.92 in1013.2 mb 0.00 in0.0 mm 0.00 in0.0 mm 0.02 in0.5 mm
10:45 AM 21.1°F-6.1°C 16.5°F-8.6°C 82% 1.0 mph N1.6 kmh N 14.0 mph22.5 kmh 29.92 in1013.2 mb 0.00 in0.0 mm 0.00 in0.0 mm 0.02 in0.5 mm
11:00 AM 20.9°F-6.2°C 16.6°F-8.6°C 83% 10.0 mph NW16.1 kmh NW 16.0 mph25.7 kmh 29.92 in1013.2 mb 0.00 in0.0 mm 0.00 in0.0 mm 0.02 in0.5 mm
11:15 AM 20.7°F-6.3°C 16.1°F-8.8°C 82% 4.0 mph NNE6.4 kmh NNE 15.0 mph24.1 kmh 29.93 in1013.5 mb 0.00 in0.0 mm 0.00 in0.0 mm 0.02 in0.5 mm
11:30 AM 20.9°F-6.2°C 16.8°F-8.4°C 84% 5.0 mph WNW8.0 kmh WNW 15.0 mph24.1 kmh 29.93 in1013.5 mb 0.00 in0.0 mm 0.00 in0.0 mm 0.02 in0.5 mm
11:45 AM 21.5°F-5.8°C 17.2°F-8.2°C 83% Calm Calm 14.0 mph22.5 kmh 29.93 in1013.5 mb 0.00 in0.0 mm 0.00 in0.0 mm 0.02 in0.5 mm
12:00 PM 21.4°F-5.9°C 16.8°F-8.4°C 82% 8.0 mph NW12.9 kmh NW 14.0 mph22.5 kmh 29.93 in1013.5 mb 0.00 in0.0 mm 0.00 in0.0 mm 0.02 in0.5 mm
12:15 PM 21.1°F-6.1°C 16.5°F-8.6°C 82% 4.0 mph NNW6.4 kmh NNW 17.0 mph27.4 kmh 29.93 in1013.5 mb 0.00 in0.0 mm 0.00 in0.0 mm 0.02 in0.5 mm
12:30 PM 21.1°F-6.1°C 16.5°F-8.6°C 82% 3.0 mph N4.8 kmh N 17.0 mph27.4 kmh 29.94 in1013.9 mb 0.00 in0.0 mm 0.00 in0.0 mm 0.02 in0.5 mm
12:45 PM 21.3°F-5.9°C 17.0°F-8.3°C 83% 1.0 mph N1.6 kmh N 10.0 mph16.1 kmh 29.94 in1013.9 mb 0.00 in0.0 mm 0.00 in0.0 mm 0.02 in0.5 mm
01:00 PM 21.5°F-5.8°C 16.9°F-8.4°C 82% 8.0 mph NNE12.9 kmh NNE 15.0 mph24.1 kmh 29.95 in1014.2 mb 0.00 in0.0 mm 0.00 in0.0 mm 0.02 in0.5 mm
01:15 PM 21.4°F-5.9°C 16.8°F-8.4°C 82% 3.0 mph NW4.8 kmh NW 14.0 mph22.5 kmh 29.95 in1014.2 mb 0.00 in0.0 mm 0.00 in0.0 mm 0.02 in0.5 mm
01:30 PM 21.2°F-6.0°C 16.6°F-8.6°C 82% 2.0 mph NNW3.2 kmh NNW 14.0 mph22.5 kmh 29.96 in1014.6 mb 0.00 in0.0 mm 0.00 in0.0 mm 0.02 in0.5 mm
01:45 PM 21.2°F-6.0°C 16.6°F-8.6°C 82% 3.0 mph NNE4.8 kmh NNE 13.0 mph20.9 kmh 29.97 in1014.9 mb 0.00 in0.0 mm 0.00 in0.0 mm 0.02 in0.5 mm
02:00 PM 21.1°F-6.1°C 16.5°F-8.6°C 82% 5.0 mph NE8.0 kmh NE 13.0 mph20.9 kmh 29.98 in1015.2 mb 0.00 in0.0 mm 0.00 in0.0 mm 0.02 in0.5 mm
02:15 PM 21.0°F-6.1°C 16.1°F-8.8°C 81% 7.0 mph N11.3 kmh N 13.0 mph20.9 kmh 29.99 in1015.6 mb 0.00 in0.0 mm 0.00 in0.0 mm 0.02 in0.5 mm
02:30 PM 21.1°F-6.1°C 16.2°F-8.8°C 81% 3.0 mph N4.8 kmh N 15.0 mph24.1 kmh 30.01 in1016.3 mb 0.00 in0.0 mm 0.00 in0.0 mm 0.02 in0.5 mm
02:45 PM 21.0°F-6.1°C 16.1°F-8.8°C 81% 3.0 mph NW4.8 kmh NW 11.0 mph17.7 kmh 30.01 in1016.3 mb 0.00 in0.0 mm 0.00 in0.0 mm 0.02 in0.5 mm
03:00 PM 20.9°F-6.2°C 16.0°F-8.9°C 81% 1.0 mph NNW1.6 kmh NNW 11.0 mph17.7 kmh 30.03 in1016.9 mb 0.00 in0.0 mm 0.00 in0.0 mm 0.02 in0.5 mm
03:15 PM 20.8°F-6.2°C 15.9°F-8.9°C 81% 3.0 mph NNW4.8 kmh NNW 9.0 mph14.5 kmh 30.04 in1017.3 mb 0.00 in0.0 mm 0.00 in0.0 mm 0.02 in0.5 mm
03:30 PM 20.6°F-6.3°C 16.0°F-8.9°C 82% 4.0 mph WNW6.4 kmh WNW 13.0 mph20.9 kmh 30.06 in1017.9 mb 0.00 in0.0 mm 0.00 in0.0 mm 0.02 in0.5 mm
03:45 PM 20.3°F-6.5°C 15.4°F-9.2°C 81% 1.0 mph NW1.6 kmh NW 13.0 mph20.9 kmh 30.07 in1018.3 mb 0.00 in0.0 mm 0.00 in0.0 mm 0.02 in0.5 mm
04:00 PM 20.0°F-6.7°C 15.4°F-9.2°C 82% 1.0 mph N1.6 kmh N 13.0 mph20.9 kmh 30.09 in1019.0 mb 0.00 in0.0 mm 0.00 in0.0 mm 0.02 in0.5 mm
04:15 PM 19.8°F-6.8°C 15.2°F-9.3°C 82% 1.0 mph NW1.6 kmh NW 8.0 mph12.9 kmh 30.09 in1019.0 mb 0.00 in0.0 mm 0.00 in0.0 mm 0.02 in0.5 mm
04:30 PM 19.6°F-6.9°C 15.0°F-9.4°C 82% Calm Calm 8.0 mph12.9 kmh 30.10 in1019.3 mb 0.00 in0.0 mm 0.00 in0.0 mm 0.02 in0.5 mm
04:45 PM 19.4°F-7.0°C 14.8°F-9.6°C 82% 4.0 mph WNW6.4 kmh WNW 7.0 mph11.3 kmh 30.10 in1019.3 mb 0.00 in0.0 mm 0.00 in0.0 mm 0.02 in0.5 mm
05:00 PM 19.2°F-7.1°C 14.3°F-9.8°C 81% 4.0 mph NNW6.4 kmh NNW 8.0 mph12.9 kmh 30.12 in1020.0 mb 0.00 in0.0 mm 0.00 in0.0 mm 0.02 in0.5 mm
05:15 PM 19.0°F-7.2°C 14.4°F-9.8°C 82% 5.0 mph NW8.0 kmh NW 10.0 mph16.1 kmh 30.13 in1020.3 mb 0.00 in0.0 mm 0.00 in0.0 mm 0.02 in0.5 mm
05:30 PM 18.9°F-7.3°C 14.3°F-9.8°C 82% 2.0 mph NNW3.2 kmh NNW 10.0 mph16.1 kmh 30.14 in1020.7 mb 0.00 in0.0 mm 0.00 in0.0 mm 0.02 in0.5 mm
05:45 PM 18.6°F-7.4°C 14.0°F-10.0°C 82% 4.0 mph NNW6.4 kmh NNW 7.0 mph11.3 kmh 30.15 in1021.0 mb 0.00 in0.0 mm 0.00 in0.0 mm 0.02 in0.5 mm
06:00 PM 18.5°F-7.5°C 13.7°F-10.2°C 81% 2.0 mph N3.2 kmh N 12.0 mph19.3 kmh 30.16 in1021.3 mb 0.00 in0.0 mm 0.00 in0.0 mm 0.02 in0.5 mm
06:15 PM 18.2°F-7.7°C 13.4°F-10.3°C 81% Calm Calm 8.0 mph12.9 kmh 30.17 in1021.7 mb 0.00 in0.0 mm 0.00 in0.0 mm 0.02 in0.5 mm
06:30 PM 17.9°F-7.8°C 12.8°F-10.7°C 80% 2.0 mph ENE3.2 kmh ENE 11.0 mph17.7 kmh 30.17 in1021.7 mb 0.00 in0.0 mm 0.00 in0.0 mm 0.02 in0.5 mm
06:45 PM 17.7°F-7.9°C 12.9°F-10.6°C 81% 7.0 mph ENE11.3 kmh ENE 8.0 mph12.9 kmh 30.18 in1022.0 mb 0.00 in0.0 mm 0.00 in0.0 mm 0.02 in0.5 mm
07:00 PM 17.6°F-8.0°C 12.8°F-10.7°C 81% Calm Calm 8.0 mph12.9 kmh 30.19 in1022.4 mb 0.00 in0.0 mm 0.00 in0.0 mm 0.02 in0.5 mm
07:15 PM 17.6°F-8.0°C 13.1°F-10.5°C 82% 2.0 mph NE3.2 kmh NE 13.0 mph20.9 kmh 30.19 in1022.4 mb 0.00 in0.0 mm 0.00 in0.0 mm 0.02 in0.5 mm
07:30 PM 17.6°F-8.0°C 13.1°F-10.5°C 82% Calm Calm 13.0 mph20.9 kmh 30.20 in1022.7 mb 0.00 in0.0 mm 0.00 in0.0 mm 0.02 in0.5 mm
07:45 PM 17.4°F-8.1°C 12.9°F-10.6°C 82% Calm Calm 7.0 mph11.3 kmh 30.20 in1022.7 mb 0.00 in0.0 mm 0.00 in0.0 mm 0.02 in0.5 mm
08:00 PM 17.1°F-8.3°C 12.6°F-10.8°C 82% 1.0 mph N1.6 kmh N 9.0 mph14.5 kmh 30.21 in1023.0 mb 0.00 in0.0 mm 0.00 in0.0 mm 0.02 in0.5 mm
08:15 PM 16.7°F-8.5°C 11.9°F-11.2°C 81% 1.0 mph N1.6 kmh N 9.0 mph14.5 kmh 30.22 in1023.4 mb 0.00 in0.0 mm 0.00 in0.0 mm 0.02 in0.5 mm
08:30 PM 16.3°F-8.7°C 11.5°F-11.4°C 81% 5.0 mph N8.0 kmh N 9.0 mph14.5 kmh 30.22 in1023.4 mb 0.00 in0.0 mm 0.00 in0.0 mm 0.02 in0.5 mm
08:45 PM 15.8°F-9.0°C 11.0°F-11.7°C 81% Calm Calm 6.0 mph9.7 kmh 30.23 in1023.7 mb 0.00 in0.0 mm 0.00 in0.0 mm 0.02 in0.5 mm
09:00 PM 15.4°F-9.2°C 10.6°F-11.9°C 81% 3.0 mph NNW4.8 kmh NNW 11.0 mph17.7 kmh 30.23 in1023.7 mb 0.00 in0.0 mm 0.00 in0.0 mm 0.02 in0.5 mm
09:15 PM 15.0°F-9.4°C 10.2°F-12.1°C 81% 3.0 mph NW4.8 kmh NW 9.0 mph14.5 kmh 30.24 in1024.0 mb 0.00 in0.0 mm 0.00 in0.0 mm 0.02 in0.5 mm
09:30 PM 14.8°F-9.6°C 10.0°F-12.2°C 81% Calm Calm 9.0 mph14.5 kmh 30.24 in1024.0 mb 0.00 in0.0 mm 0.00 in0.0 mm 0.02 in0.5 mm
09:45 PM 14.5°F-9.7°C 10.0°F-12.2°C 82% Calm Calm 9.0 mph14.5 kmh 30.24 in1024.0 mb 0.00 in0.0 mm 0.00 in0.0 mm 0.02 in0.5 mm
10:00 PM 14.5°F-9.7°C 10.3°F-12.1°C 83% Calm Calm 9.0 mph14.5 kmh 30.25 in1024.4 mb 0.00 in0.0 mm 0.00 in0.0 mm 0.02 in0.5 mm
10:15 PM 14.5°F-9.7°C 10.0°F-12.2°C 82% 1.0 mph NE1.6 kmh NE 6.0 mph9.7 kmh 30.25 in1024.4 mb 0.00 in0.0 mm 0.00 in0.0 mm 0.02 in0.5 mm
10:30 PM 14.3°F-9.8°C 9.6°F-12.4°C 81% 1.0 mph NE1.6 kmh NE 8.0 mph12.9 kmh 30.25 in1024.4 mb 0.00 in0.0 mm 0.00 in0.0 mm 0.02 in0.5 mm
10:45 PM 14.2°F-9.9°C 9.7°F-12.4°C 82% 1.0 mph NNE1.6 kmh NNE 5.0 mph8.0 kmh 30.26 in1024.7 mb 0.00 in0.0 mm 0.00 in0.0 mm 0.02 in0.5 mm
11:00 PM 14.1°F-9.9°C 9.4°F-12.6°C 81% 5.0 mph NNW8.0 kmh NNW 5.0 mph8.0 kmh 30.27 in1025.1 mb 0.00 in0.0 mm 0.00 in0.0 mm 0.02 in0.5 mm
11:15 PM 14.1°F-9.9°C 9.6°F-12.4°C 82% Calm Calm 6.0 mph9.7 kmh 30.27 in1025.1 mb 0.00 in0.0 mm 0.00 in0.0 mm 0.02 in0.5 mm
11:30 PM 14.1°F-9.9°C 9.6°F-12.4°C 82% 3.0 mph WNW4.8 kmh WNW 6.0 mph9.7 kmh 30.27 in1025.1 mb 0.00 in0.0 mm 0.00 in0.0 mm 0.02 in0.5 mm
11:45 PM 14.1°F-9.9°C 9.6°F-12.4°C 82% 1.0 mph NW1.6 kmh NW 5.0 mph8.0 kmh 30.28 in1025.4 mb 0.00 in0.0 mm 0.00 in0.0 mm 0.02 in0.5 mm